sensor_id;sensor_type;location;lat;lon;timestamp;temperature;humidity
67529;DHT22;54366;51.980;5.856;2023-06-19T00:00:55;24.10;47.30
67529;DHT22;54366;51.980;5.856;2023-06-19T00:03:35;24.10;47.80
67529;DHT22;54366;51.980;5.856;2023-06-19T00:06:08;24.10;47.80
67529;DHT22;54366;51.980;5.856;2023-06-19T00:08:41;24.00;48.00
67529;DHT22;54366;51.980;5.856;2023-06-19T00:11:15;24.00;48.20
67529;DHT22;54366;51.980;5.856;2023-06-19T00:13:41;24.00;48.10
67529;DHT22;54366;51.980;5.856;2023-06-19T00:16:14;24.00;48.30
67529;DHT22;54366;51.980;5.856;2023-06-19T00:18:47;24.00;48.50
67529;DHT22;54366;51.980;5.856;2023-06-19T00:21:20;24.00;48.60
67529;DHT22;54366;51.980;5.856;2023-06-19T00:23:46;24.00;48.60
67529;DHT22;54366;51.980;5.856;2023-06-19T00:26:19;24.00;48.90
67529;DHT22;54366;51.980;5.856;2023-06-19T00:28:55;23.90;49.50
67529;DHT22;54366;51.980;5.856;2023-06-19T00:31:29;23.90;49.50
67529;DHT22;54366;51.980;5.856;2023-06-19T00:33:55;23.90;49.50
67529;DHT22;54366;51.980;5.856;2023-06-19T00:36:28;23.80;49.40
67529;DHT22;54366;51.980;5.856;2023-06-19T00:39:01;23.80;49.70
67529;DHT22;54366;51.980;5.856;2023-06-19T00:41:28;23.80;49.90
67529;DHT22;54366;51.980;5.856;2023-06-19T00:44:03;23.80;50.00
67529;DHT22;54366;51.980;5.856;2023-06-19T00:46:37;23.80;50.40
67529;DHT22;54366;51.980;5.856;2023-06-19T00:49:13;23.80;50.60
67529;DHT22;54366;51.980;5.856;2023-06-19T00:51:40;23.80;50.50
67529;DHT22;54366;51.980;5.856;2023-06-19T00:54:15;23.80;51.00
67529;DHT22;54366;51.980;5.856;2023-06-19T00:56:41;23.80;51.50
67529;DHT22;54366;51.980;5.856;2023-06-19T00:59:20;23.80;51.30
67529;DHT22;54366;51.980;5.856;2023-06-19T01:01:59;23.80;51.30
67529;DHT22;54366;51.980;5.856;2023-06-19T01:04:33;23.80;51.20
67529;DHT22;54366;51.980;5.856;2023-06-19T01:07:09;23.80;51.00
67529;DHT22;54366;51.980;5.856;2023-06-19T01:09:51;23.80;51.00
67529;DHT22;54366;51.980;5.856;2023-06-19T01:12:33;23.80;50.90
67529;DHT22;54366;51.980;5.856;2023-06-19T01:15:08;23.80;50.70
67529;DHT22;54366;51.980;5.856;2023-06-19T01:17:35;23.80;50.90
67529;DHT22;54366;51.980;5.856;2023-06-19T01:20:09;23.80;50.70
67529;DHT22;54366;51.980;5.856;2023-06-19T01:22:38;23.80;50.60
67529;DHT22;54366;51.980;5.856;2023-06-19T01:25:11;23.70;50.60
67529;DHT22;54366;51.980;5.856;2023-06-19T01:27:46;23.70;50.90
67529;DHT22;54366;51.980;5.856;2023-06-19T01:30:13;23.70;51.00
67529;DHT22;54366;51.980;5.856;2023-06-19T01:33:00;23.70;51.30
67529;DHT22;54366;51.980;5.856;2023-06-19T01:35:38;23.60;51.10
67529;DHT22;54366;51.980;5.856;2023-06-19T01:38:12;23.60;51.10
67529;DHT22;54366;51.980;5.856;2023-06-19T01:40:46;23.60;51.10
67529;DHT22;54366;51.980;5.856;2023-06-19T01:43:21;23.60;51.10
67529;DHT22;54366;51.980;5.856;2023-06-19T01:45:55;23.50;51.10
67529;DHT22;54366;51.980;5.856;2023-06-19T01:48:28;23.50;51.40
67529;DHT22;54366;51.980;5.856;2023-06-19T01:51:02;23.40;51.60
67529;DHT22;54366;51.980;5.856;2023-06-19T01:53:38;23.40;51.70
67529;DHT22;54366;51.980;5.856;2023-06-19T01:56:05;23.30;52.40
67529;DHT22;54366;51.980;5.856;2023-06-19T01:58:38;23.30;52.50
67529;DHT22;54366;51.980;5.856;2023-06-19T02:01:04;23.20;52.50
67529;DHT22;54366;51.980;5.856;2023-06-19T02:03:37;23.20;52.80
67529;DHT22;54366;51.980;5.856;2023-06-19T02:06:04;23.20;52.90
67529;DHT22;54366;51.980;5.856;2023-06-19T02:08:40;23.10;52.80
67529;DHT22;54366;51.980;5.856;2023-06-19T02:11:13;23.10;53.10
67529;DHT22;54366;51.980;5.856;2023-06-19T02:13:41;23.00;53.40
67529;DHT22;54366;51.980;5.856;2023-06-19T02:16:14;23.00;53.50
67529;DHT22;54366;51.980;5.856;2023-06-19T02:18:40;22.90;54.10
67529;DHT22;54366;51.980;5.856;2023-06-19T02:21:14;22.90;53.90
67529;DHT22;54366;51.980;5.856;2023-06-19T02:23:40;22.90;54.40
67529;DHT22;54366;51.980;5.856;2023-06-19T02:26:13;22.80;54.60
67529;DHT22;54366;51.980;5.856;2023-06-19T02:28:46;22.80;54.60
67529;DHT22;54366;51.980;5.856;2023-06-19T02:31:19;22.70;55.20
67529;DHT22;54366;51.980;5.856;2023-06-19T02:33:52;22.70;54.90
67529;DHT22;54366;51.980;5.856;2023-06-19T02:36:19;22.60;54.80
67529;DHT22;54366;51.980;5.856;2023-06-19T02:38:52;22.60;55.30
67529;DHT22;54366;51.980;5.856;2023-06-19T02:41:25;22.60;55.40
67529;DHT22;54366;51.980;5.856;2023-06-19T02:43:58;22.50;55.70
67529;DHT22;54366;51.980;5.856;2023-06-19T02:46:31;22.50;56.30
67529;DHT22;54366;51.980;5.856;2023-06-19T02:48:57;22.40;55.70
67529;DHT22;54366;51.980;5.856;2023-06-19T02:51:30;22.40;56.10
67529;DHT22;54366;51.980;5.856;2023-06-19T02:54:04;22.40;56.30
67529;DHT22;54366;51.980;5.856;2023-06-19T02:56:32;22.30;57.40
67529;DHT22;54366;51.980;5.856;2023-06-19T02:59:05;22.30;57.00
67529;DHT22;54366;51.980;5.856;2023-06-19T03:01:31;22.30;56.80
67529;DHT22;54366;51.980;5.856;2023-06-19T03:04:04;22.20;57.70
67529;DHT22;54366;51.980;5.856;2023-06-19T03:06:30;22.10;57.60
67529;DHT22;54366;51.980;5.856;2023-06-19T03:09:06;22.10;57.80
67529;DHT22;54366;51.980;5.856;2023-06-19T03:11:45;22.10;58.30
67529;DHT22;54366;51.980;5.856;2023-06-19T03:14:18;22.00;58.30
67529;DHT22;54366;51.980;5.856;2023-06-19T03:16:51;22.00;59.20
67529;DHT22;54366;51.980;5.856;2023-06-19T03:19:18;22.00;59.30
67529;DHT22;54366;51.980;5.856;2023-06-19T03:21:51;22.00;59.80
67529;DHT22;54366;51.980;5.856;2023-06-19T03:24:24;22.00;60.40
67529;DHT22;54366;51.980;5.856;2023-06-19T03:27:11;21.90;60.10
67529;DHT22;54366;51.980;5.856;2023-06-19T03:29:44;21.90;59.90
67529;DHT22;54366;51.980;5.856;2023-06-19T03:32:13;21.90;60.50
67529;DHT22;54366;51.980;5.856;2023-06-19T03:34:47;21.90;60.80
67529;DHT22;54366;51.980;5.856;2023-06-19T03:37:14;21.80;61.10
67529;DHT22;54366;51.980;5.856;2023-06-19T03:39:49;21.80;61.20
67529;DHT22;54366;51.980;5.856;2023-06-19T03:42:15;21.90;60.90
67529;DHT22;54366;51.980;5.856;2023-06-19T03:44:48;21.90;60.80
67529;DHT22;54366;51.980;5.856;2023-06-19T03:47:14;21.90;60.50
67529;DHT22;54366;51.980;5.856;2023-06-19T03:49:49;21.90;61.00
67529;DHT22;54366;51.980;5.856;2023-06-19T03:52:15;21.90;60.70
67529;DHT22;54366;51.980;5.856;2023-06-19T03:54:49;21.90;61.20
67529;DHT22;54366;51.980;5.856;2023-06-19T03:57:15;21.90;61.60
67529;DHT22;54366;51.980;5.856;2023-06-19T03:59:48;21.90;61.20
67529;DHT22;54366;51.980;5.856;2023-06-19T04:02:28;21.90;61.60
67529;DHT22;54366;51.980;5.856;2023-06-19T04:05:09;21.90;61.10
67529;DHT22;54366;51.980;5.856;2023-06-19T04:07:35;21.90;61.40
67529;DHT22;54366;51.980;5.856;2023-06-19T04:10:09;22.00;61.10
67529;DHT22;54366;51.980;5.856;2023-06-19T04:12:44;22.00;62.00
67529;DHT22;54366;51.980;5.856;2023-06-19T04:15:18;22.00;62.10
67529;DHT22;54366;51.980;5.856;2023-06-19T04:17:51;21.90;62.20
67529;DHT22;54366;51.980;5.856;2023-06-19T04:20:24;21.90;62.20
67529;DHT22;54366;51.980;5.856;2023-06-19T04:22:57;21.90;62.30
67529;DHT22;54366;51.980;5.856;2023-06-19T04:25:30;21.90;62.60
67529;DHT22;54366;51.980;5.856;2023-06-19T04:27:56;21.90;62.70
67529;DHT22;54366;51.980;5.856;2023-06-19T04:30:30;21.90;62.70
67529;DHT22;54366;51.980;5.856;2023-06-19T04:33:03;21.90;62.60
67529;DHT22;54366;51.980;5.856;2023-06-19T04:35:37;21.90;62.90
67529;DHT22;54366;51.980;5.856;2023-06-19T04:38:12;21.90;63.40
67529;DHT22;54366;51.980;5.856;2023-06-19T04:40:47;21.80;63.20
67529;DHT22;54366;51.980;5.856;2023-06-19T04:43:20;21.80;63.40
67529;DHT22;54366;51.980;5.856;2023-06-19T04:45:53;21.80;63.60
67529;DHT22;54366;51.980;5.856;2023-06-19T04:48:19;21.80;63.70
67529;DHT22;54366;51.980;5.856;2023-06-19T04:50:52;21.90;63.70
67529;DHT22;54366;51.980;5.856;2023-06-19T04:53:25;21.90;63.80
67529;DHT22;54366;51.980;5.856;2023-06-19T04:55:58;21.90;63.60
67529;DHT22;54366;51.980;5.856;2023-06-19T04:58:31;21.90;63.80
67529;DHT22;54366;51.980;5.856;2023-06-19T05:01:04;21.90;64.50
67529;DHT22;54366;51.980;5.856;2023-06-19T05:03:45;21.90;64.00
67529;DHT22;54366;51.980;5.856;2023-06-19T05:06:22;21.90;65.50
67529;DHT22;54366;51.980;5.856;2023-06-19T05:08:56;21.90;64.90
67529;DHT22;54366;51.980;5.856;2023-06-19T05:11:22;21.80;65.30
67529;DHT22;54366;51.980;5.856;2023-06-19T05:13:55;21.80;65.40
67529;DHT22;54366;51.980;5.856;2023-06-19T05:16:22;21.80;65.80
67529;DHT22;54366;51.980;5.856;2023-06-19T05:18:55;21.80;65.40
67529;DHT22;54366;51.980;5.856;2023-06-19T05:21:28;21.70;65.60
67529;DHT22;54366;51.980;5.856;2023-06-19T05:24:01;21.80;65.40
67529;DHT22;54366;51.980;5.856;2023-06-19T05:26:34;21.70;65.90
67529;DHT22;54366;51.980;5.856;2023-06-19T05:29:00;21.70;66.40
67529;DHT22;54366;51.980;5.856;2023-06-19T05:31:33;21.70;66.50
67529;DHT22;54366;51.980;5.856;2023-06-19T05:33:59;21.70;66.70
67529;DHT22;54366;51.980;5.856;2023-06-19T05:36:32;21.70;66.70
67529;DHT22;54366;51.980;5.856;2023-06-19T05:39:05;21.70;67.20
67529;DHT22;54366;51.980;5.856;2023-06-19T05:41:31;21.70;67.70
67529;DHT22;54366;51.980;5.856;2023-06-19T05:44:04;21.70;67.00
67529;DHT22;54366;51.980;5.856;2023-06-19T05:46:37;21.70;67.30
67529;DHT22;54366;51.980;5.856;2023-06-19T05:49:10;21.80;67.40
67529;DHT22;54366;51.980;5.856;2023-06-19T05:51:43;21.80;67.20
67529;DHT22;54366;51.980;5.856;2023-06-19T05:54:09;21.90;67.00
67529;DHT22;54366;51.980;5.856;2023-06-19T05:56:42;21.90;67.40
67529;DHT22;54366;51.980;5.856;2023-06-19T05:59:15;21.90;67.10
67529;DHT22;54366;51.980;5.856;2023-06-19T06:01:41;22.00;66.90
67529;DHT22;54366;51.980;5.856;2023-06-19T06:04:14;22.00;67.00
67529;DHT22;54366;51.980;5.856;2023-06-19T06:06:54;22.00;66.50
67529;DHT22;54366;51.980;5.856;2023-06-19T06:09:27;22.00;66.30
67529;DHT22;54366;51.980;5.856;2023-06-19T06:11:53;22.00;67.00
67529;DHT22;54366;51.980;5.856;2023-06-19T06:14:27;22.10;66.80
67529;DHT22;54366;51.980;5.856;2023-06-19T06:17:00;22.00;66.80
67529;DHT22;54366;51.980;5.856;2023-06-19T06:19:26;22.10;66.90
67529;DHT22;54366;51.980;5.856;2023-06-19T06:21:59;22.10;66.40
67529;DHT22;54366;51.980;5.856;2023-06-19T06:24:32;22.20;66.40
67529;DHT22;54366;51.980;5.856;2023-06-19T06:27:06;22.20;65.90
67529;DHT22;54366;51.980;5.856;2023-06-19T06:29:32;22.20;65.60
67529;DHT22;54366;51.980;5.856;2023-06-19T06:32:06;22.20;66.30
67529;DHT22;54366;51.980;5.856;2023-06-19T06:34:40;22.20;66.20
67529;DHT22;54366;51.980;5.856;2023-06-19T06:37:13;22.20;65.50
67529;DHT22;54366;51.980;5.856;2023-06-19T06:39:39;22.20;65.60
67529;DHT22;54366;51.980;5.856;2023-06-19T06:42:12;22.20;65.50
67529;DHT22;54366;51.980;5.856;2023-06-19T06:44:39;22.20;65.50
67529;DHT22;54366;51.980;5.856;2023-06-19T06:47:12;22.10;65.40
67529;DHT22;54366;51.980;5.856;2023-06-19T06:49:45;22.10;65.60
67529;DHT22;54366;51.980;5.856;2023-06-19T06:52:18;22.20;65.30
67529;DHT22;54366;51.980;5.856;2023-06-19T06:54:51;22.10;64.10
67529;DHT22;54366;51.980;5.856;2023-06-19T06:57:17;22.10;64.20
67529;DHT22;54366;51.980;5.856;2023-06-19T06:59:50;22.20;64.10
67529;DHT22;54366;51.980;5.856;2023-06-19T07:02:29;22.20;63.80
67529;DHT22;54366;51.980;5.856;2023-06-19T07:05:10;22.20;64.00
67529;DHT22;54366;51.980;5.856;2023-06-19T07:07:37;22.20;63.80
67529;DHT22;54366;51.980;5.856;2023-06-19T07:10:10;22.20;63.60
67529;DHT22;54366;51.980;5.856;2023-06-19T07:12:47;22.20;63.60
67529;DHT22;54366;51.980;5.856;2023-06-19T07:15:20;22.30;63.50
67529;DHT22;54366;51.980;5.856;2023-06-19T07:17:53;22.30;63.80
67529;DHT22;54366;51.980;5.856;2023-06-19T07:20:19;22.30;63.00
67529;DHT22;54366;51.980;5.856;2023-06-19T07:22:52;22.30;63.00
67529;DHT22;54366;51.980;5.856;2023-06-19T07:25:19;22.40;62.60
67529;DHT22;54366;51.980;5.856;2023-06-19T07:27:52;22.50;62.60
67529;DHT22;54366;51.980;5.856;2023-06-19T07:30:18;22.60;62.50
67529;DHT22;54366;51.980;5.856;2023-06-19T07:32:51;22.70;62.00
67529;DHT22;54366;51.980;5.856;2023-06-19T07:35:24;22.90;61.00
67529;DHT22;54366;51.980;5.856;2023-06-19T07:37:50;23.00;60.50
67529;DHT22;54366;51.980;5.856;2023-06-19T07:40:23;23.10;60.10
67529;DHT22;54366;51.980;5.856;2023-06-19T07:42:49;23.20;59.90
67529;DHT22;54366;51.980;5.856;2023-06-19T07:45:22;23.30;59.70
67529;DHT22;54366;51.980;5.856;2023-06-19T07:47:56;23.30;58.70
67529;DHT22;54366;51.980;5.856;2023-06-19T07:50:29;23.40;58.50
67529;DHT22;54366;51.980;5.856;2023-06-19T07:53:02;23.50;58.80
67529;DHT22;54366;51.980;5.856;2023-06-19T07:55:35;23.50;58.10
67529;DHT22;54366;51.980;5.856;2023-06-19T07:58:01;23.50;58.20
67529;DHT22;54366;51.980;5.856;2023-06-19T08:00:34;23.60;57.80
67529;DHT22;54366;51.980;5.856;2023-06-19T08:03:01;23.70;58.00
67529;DHT22;54366;51.980;5.856;2023-06-19T08:05:34;23.80;57.50
67529;DHT22;54366;51.980;5.856;2023-06-19T08:08:07;23.80;56.70
67529;DHT22;54366;51.980;5.856;2023-06-19T08:10:40;23.80;56.50
67529;DHT22;54366;51.980;5.856;2023-06-19T08:13:07;23.80;56.80
67529;DHT22;54366;51.980;5.856;2023-06-19T08:15:40;23.80;56.20
67529;DHT22;54366;51.980;5.856;2023-06-19T08:18:13;23.80;56.50
67529;DHT22;54366;51.980;5.856;2023-06-19T08:20:46;23.90;56.60
67529;DHT22;54366;51.980;5.856;2023-06-19T08:23:19;24.00;56.20
67529;DHT22;54366;51.980;5.856;2023-06-19T08:25:45;24.10;55.80
67529;DHT22;54366;51.980;5.856;2023-06-19T08:28:18;24.10;55.50
67529;DHT22;54366;51.980;5.856;2023-06-19T08:30:51;24.10;55.60
67529;DHT22;54366;51.980;5.856;2023-06-19T08:33:24;24.10;55.60
67529;DHT22;54366;51.980;5.856;2023-06-19T08:35:50;24.10;55.20
67529;DHT22;54366;51.980;5.856;2023-06-19T08:38:23;24.10;54.70
67529;DHT22;54366;51.980;5.856;2023-06-19T08:40:49;24.10;55.20
67529;DHT22;54366;51.980;5.856;2023-06-19T08:43:22;24.20;55.10
67529;DHT22;54366;51.980;5.856;2023-06-19T08:46:11;24.30;54.80
67529;DHT22;54366;51.980;5.856;2023-06-19T08:48:44;24.30;54.80
67529;DHT22;54366;51.980;5.856;2023-06-19T08:51:17;24.40;54.50
67529;DHT22;54366;51.980;5.856;2023-06-19T08:53:54;24.60;54.70
67529;DHT22;54366;51.980;5.856;2023-06-19T08:56:27;24.80;54.30
67529;DHT22;54366;51.980;5.856;2023-06-19T08:58:53;24.90;54.10
67529;DHT22;54366;51.980;5.856;2023-06-19T09:01:26;24.90;54.00
67529;DHT22;54366;51.980;5.856;2023-06-19T09:04:13;25.00;54.10
67529;DHT22;54366;51.980;5.856;2023-06-19T09:07:00;25.30;55.00
67529;DHT22;54366;51.980;5.856;2023-06-19T09:09:52;25.50;53.10
67529;DHT22;54366;51.980;5.856;2023-06-19T09:12:25;25.50;52.60
67529;DHT22;54366;51.980;5.856;2023-06-19T09:15:01;25.50;52.80
67529;DHT22;54366;51.980;5.856;2023-06-19T09:17:43;25.70;53.00
67529;DHT22;54366;51.980;5.856;2023-06-19T09:20:26;25.70;52.60
67529;DHT22;54366;51.980;5.856;2023-06-19T09:23:00;25.70;52.40
67529;DHT22;54366;51.980;5.856;2023-06-19T09:25:26;25.70;52.20
67529;DHT22;54366;51.980;5.856;2023-06-19T09:27:59;25.70;52.30
67529;DHT22;54366;51.980;5.856;2023-06-19T09:30:32;25.70;52.30
67529;DHT22;54366;51.980;5.856;2023-06-19T09:33:08;25.80;51.80
67529;DHT22;54366;51.980;5.856;2023-06-19T09:35:34;26.00;51.70
67529;DHT22;54366;51.980;5.856;2023-06-19T09:38:07;26.20;51.70
67529;DHT22;54366;51.980;5.856;2023-06-19T09:40:40;26.50;51.00
67529;DHT22;54366;51.980;5.856;2023-06-19T09:43:07;26.70;51.30
67529;DHT22;54366;51.980;5.856;2023-06-19T09:45:40;26.70;50.00
67529;DHT22;54366;51.980;5.856;2023-06-19T09:48:15;26.60;50.00
67529;DHT22;54366;51.980;5.856;2023-06-19T09:50:56;26.60;50.40
67529;DHT22;54366;51.980;5.856;2023-06-19T09:53:30;26.60;50.10
67529;DHT22;54366;51.980;5.856;2023-06-19T09:55:57;26.60;50.20
67529;DHT22;54366;51.980;5.856;2023-06-19T09:58:30;26.70;50.10
67529;DHT22;54366;51.980;5.856;2023-06-19T10:01:04;26.90;50.10
67529;DHT22;54366;51.980;5.856;2023-06-19T10:04:10;27.10;49.00
67529;DHT22;54366;51.980;5.856;2023-06-19T10:06:44;27.40;48.20
67529;DHT22;54366;51.980;5.856;2023-06-19T10:09:11;27.50;47.60
67529;DHT22;54366;51.980;5.856;2023-06-19T10:11:50;27.60;47.40
67529;DHT22;54366;51.980;5.856;2023-06-19T10:14:23;27.80;47.00
67529;DHT22;54366;51.980;5.856;2023-06-19T10:16:50;27.90;46.90
67529;DHT22;54366;51.980;5.856;2023-06-19T10:19:23;28.10;46.70
67529;DHT22;54366;51.980;5.856;2023-06-19T10:21:57;28.20;46.60
67529;DHT22;54366;51.980;5.856;2023-06-19T10:24:30;28.40;46.50
67529;DHT22;54366;51.980;5.856;2023-06-19T10:26:59;28.50;46.40
67529;DHT22;54366;51.980;5.856;2023-06-19T10:29:39;28.60;45.80
67529;DHT22;54366;51.980;5.856;2023-06-19T10:32:12;28.60;45.20
67529;DHT22;54366;51.980;5.856;2023-06-19T10:34:46;28.50;45.20
67529;DHT22;54366;51.980;5.856;2023-06-19T10:37:33;28.60;45.60
67529;DHT22;54366;51.980;5.856;2023-06-19T10:40:06;28.60;44.90
67529;DHT22;54366;51.980;5.856;2023-06-19T10:42:45;28.60;45.00
67529;DHT22;54366;51.980;5.856;2023-06-19T10:45:18;28.90;45.30
67529;DHT22;54366;51.980;5.856;2023-06-19T10:47:51;29.00;44.30
67529;DHT22;54366;51.980;5.856;2023-06-19T10:50:17;29.20;43.90
67529;DHT22;54366;51.980;5.856;2023-06-19T10:52:52;29.40;43.70
67529;DHT22;54366;51.980;5.856;2023-06-19T10:55:21;29.40;43.20
67529;DHT22;54366;51.980;5.856;2023-06-19T10:57:54;29.60;43.20
67529;DHT22;54366;51.980;5.856;2023-06-19T11:00:32;29.70;42.70
67529;DHT22;54366;51.980;5.856;2023-06-19T11:03:06;29.80;42.60
67529;DHT22;54366;51.980;5.856;2023-06-19T11:05:47;29.80;42.50
67529;DHT22;54366;51.980;5.856;2023-06-19T11:08:23;29.90;42.50
67529;DHT22;54366;51.980;5.856;2023-06-19T11:10:50;30.00;42.10
67529;DHT22;54366;51.980;5.856;2023-06-19T11:13:23;29.90;41.10
67529;DHT22;54366;51.980;5.856;2023-06-19T11:15:52;30.00;41.10
67529;DHT22;54366;51.980;5.856;2023-06-19T11:18:25;30.00;41.40
67529;DHT22;54366;51.980;5.856;2023-06-19T11:20:59;30.00;40.70
67529;DHT22;54366;51.980;5.856;2023-06-19T11:23:29;30.00;41.10
67529;DHT22;54366;51.980;5.856;2023-06-19T11:26:06;30.00;41.70
67529;DHT22;54366;51.980;5.856;2023-06-19T11:28:39;30.00;41.90
67529;DHT22;54366;51.980;5.856;2023-06-19T11:31:13;30.00;41.20
67529;DHT22;54366;51.980;5.856;2023-06-19T11:33:56;29.90;41.50
67529;DHT22;54366;51.980;5.856;2023-06-19T11:36:29;30.00;40.80
67529;DHT22;54366;51.980;5.856;2023-06-19T11:39:02;30.10;41.20
67529;DHT22;54366;51.980;5.856;2023-06-19T11:41:45;30.30;40.80
67529;DHT22;54366;51.980;5.856;2023-06-19T11:44:18;30.40;40.00
67529;DHT22;54366;51.980;5.856;2023-06-19T11:46:45;30.60;40.10
67529;DHT22;54366;51.980;5.856;2023-06-19T11:49:19;30.70;40.50
67529;DHT22;54366;51.980;5.856;2023-06-19T11:51:52;30.80;39.20
67529;DHT22;54366;51.980;5.856;2023-06-19T11:54:25;30.90;38.10
67529;DHT22;54366;51.980;5.856;2023-06-19T11:56:58;30.90;38.30
67529;DHT22;54366;51.980;5.856;2023-06-19T11:59:31;30.80;39.00
67529;DHT22;54366;51.980;5.856;2023-06-19T12:02:05;30.90;38.40
67529;DHT22;54366;51.980;5.856;2023-06-19T12:04:37;30.80;37.70
67529;DHT22;54366;51.980;5.856;2023-06-19T12:07:04;30.80;37.70
67529;DHT22;54366;51.980;5.856;2023-06-19T12:09:37;30.80;37.20
67529;DHT22;54366;51.980;5.856;2023-06-19T12:12:06;30.90;37.10
67529;DHT22;54366;51.980;5.856;2023-06-19T12:14:39;31.00;37.20
67529;DHT22;54366;51.980;5.856;2023-06-19T12:17:05;31.10;37.40
67529;DHT22;54366;51.980;5.856;2023-06-19T12:19:38;31.10;36.60
67529;DHT22;54366;51.980;5.856;2023-06-19T12:22:04;31.00;36.20
67529;DHT22;54366;51.980;5.856;2023-06-19T12:24:37;31.00;36.50
67529;DHT22;54366;51.980;5.856;2023-06-19T12:27:04;31.10;35.50
67529;DHT22;54366;51.980;5.856;2023-06-19T12:29:36;31.00;36.30
67529;DHT22;54366;51.980;5.856;2023-06-19T12:32:03;31.20;36.30
67529;DHT22;54366;51.980;5.856;2023-06-19T12:34:36;31.30;35.90
67529;DHT22;54366;51.980;5.856;2023-06-19T12:37:03;31.30;35.80
67529;DHT22;54366;51.980;5.856;2023-06-19T12:39:35;31.40;36.10
67529;DHT22;54366;51.980;5.856;2023-06-19T12:42:01;31.50;36.20
67529;DHT22;54366;51.980;5.856;2023-06-19T12:44:34;31.60;35.40
67529;DHT22;54366;51.980;5.856;2023-06-19T12:47:08;31.60;35.10
67529;DHT22;54366;51.980;5.856;2023-06-19T12:49:34;31.50;33.90
67529;DHT22;54366;51.980;5.856;2023-06-19T12:52:07;31.40;34.00
67529;DHT22;54366;51.980;5.856;2023-06-19T12:54:34;31.50;34.30
67529;DHT22;54366;51.980;5.856;2023-06-19T12:57:07;31.60;34.20
67529;DHT22;54366;51.980;5.856;2023-06-19T12:59:40;31.60;33.70
67529;DHT22;54366;51.980;5.856;2023-06-19T13:02:20;31.60;34.40
67529;DHT22;54366;51.980;5.856;2023-06-19T13:05:00;31.70;34.80
67529;DHT22;54366;51.980;5.856;2023-06-19T13:07:33;31.90;34.40
67529;DHT22;54366;51.980;5.856;2023-06-19T13:09:59;32.00;34.00
67529;DHT22;54366;51.980;5.856;2023-06-19T13:12:32;32.00;33.90
67529;DHT22;54366;51.980;5.856;2023-06-19T13:15:06;32.00;33.70
67529;DHT22;54366;51.980;5.856;2023-06-19T13:17:39;31.80;33.90
67529;DHT22;54366;51.980;5.856;2023-06-19T13:20:06;31.80;34.40
67529;DHT22;54366;51.980;5.856;2023-06-19T13:22:39;31.80;34.20
67529;DHT22;54366;51.980;5.856;2023-06-19T13:25:12;31.80;34.00
67529;DHT22;54366;51.980;5.856;2023-06-19T13:27:45;31.90;34.50
67529;DHT22;54366;51.980;5.856;2023-06-19T13:30:18;32.10;34.60
67529;DHT22;54366;51.980;5.856;2023-06-19T13:32:51;32.20;34.20
67529;DHT22;54366;51.980;5.856;2023-06-19T13:35:18;32.20;34.20
67529;DHT22;54366;51.980;5.856;2023-06-19T13:37:50;32.20;33.90
67529;DHT22;54366;51.980;5.856;2023-06-19T13:40:30;32.30;33.70
67529;DHT22;54366;51.980;5.856;2023-06-19T13:43:03;32.20;33.40
67529;DHT22;54366;51.980;5.856;2023-06-19T13:45:43;32.10;33.40
67529;DHT22;54366;51.980;5.856;2023-06-19T13:48:16;32.00;33.50
67529;DHT22;54366;51.980;5.856;2023-06-19T13:50:49;32.00;34.20
67529;DHT22;54366;51.980;5.856;2023-06-19T13:53:22;32.00;34.10
67529;DHT22;54366;51.980;5.856;2023-06-19T13:55:56;32.00;34.00
67529;DHT22;54366;51.980;5.856;2023-06-19T13:58:23;32.00;33.50
67529;DHT22;54366;51.980;5.856;2023-06-19T14:00:56;32.00;33.80
67529;DHT22;54366;51.980;5.856;2023-06-19T14:03:37;32.00;34.20
67529;DHT22;54366;51.980;5.856;2023-06-19T14:06:10;32.00;34.40
67529;DHT22;54366;51.980;5.856;2023-06-19T14:08:44;31.90;34.40
67529;DHT22;54366;51.980;5.856;2023-06-19T14:11:18;31.80;34.30
67529;DHT22;54366;51.980;5.856;2023-06-19T14:13:51;31.80;34.90
67529;DHT22;54366;51.980;5.856;2023-06-19T14:16:17;31.70;35.10
67529;DHT22;54366;51.980;5.856;2023-06-19T14:18:50;31.70;35.10
67529;DHT22;54366;51.980;5.856;2023-06-19T14:21:23;31.60;35.00
67529;DHT22;54366;51.980;5.856;2023-06-19T14:23:50;31.50;35.20
67529;DHT22;54366;51.980;5.856;2023-06-19T14:26:22;31.50;35.20
67529;DHT22;54366;51.980;5.856;2023-06-19T14:28:55;31.30;35.10
67529;DHT22;54366;51.980;5.856;2023-06-19T14:31:24;31.30;35.50
67529;DHT22;54366;51.980;5.856;2023-06-19T14:33:56;31.20;35.00
67529;DHT22;54366;51.980;5.856;2023-06-19T14:36:29;31.00;35.30
67529;DHT22;54366;51.980;5.856;2023-06-19T14:39:02;30.90;35.30
67529;DHT22;54366;51.980;5.856;2023-06-19T14:41:29;30.80;35.60
67529;DHT22;54366;51.980;5.856;2023-06-19T14:44:01;30.70;35.80
67529;DHT22;54366;51.980;5.856;2023-06-19T14:46:27;30.60;35.70
67529;DHT22;54366;51.980;5.856;2023-06-19T14:49:00;30.60;36.00
67529;DHT22;54366;51.980;5.856;2023-06-19T14:51:33;30.60;36.50
67529;DHT22;54366;51.980;5.856;2023-06-19T14:54:06;30.60;36.50
67529;DHT22;54366;51.980;5.856;2023-06-19T14:56:39;30.60;36.00
67529;DHT22;54366;51.980;5.856;2023-06-19T14:59:12;30.60;35.30
67529;DHT22;54366;51.980;5.856;2023-06-19T15:01:39;30.50;35.60
67529;DHT22;54366;51.980;5.856;2023-06-19T15:04:11;30.50;36.20
67529;DHT22;54366;51.980;5.856;2023-06-19T15:06:51;30.50;35.90
67529;DHT22;54366;51.980;5.856;2023-06-19T15:09:18;30.50;36.20
67529;DHT22;54366;51.980;5.856;2023-06-19T15:11:50;30.50;36.10
67529;DHT22;54366;51.980;5.856;2023-06-19T15:14:17;30.40;36.10
67529;DHT22;54366;51.980;5.856;2023-06-19T15:16:50;30.40;36.40
67529;DHT22;54366;51.980;5.856;2023-06-19T15:19:16;30.50;35.90
67529;DHT22;54366;51.980;5.856;2023-06-19T15:21:49;30.40;35.70
67529;DHT22;54366;51.980;5.856;2023-06-19T15:24:22;30.30;35.40
67529;DHT22;54366;51.980;5.856;2023-06-19T15:26:55;30.20;35.80
67529;DHT22;54366;51.980;5.856;2023-06-19T15:29:30;30.10;36.20
67529;DHT22;54366;51.980;5.856;2023-06-19T15:32:04;30.10;36.60
67529;DHT22;54366;51.980;5.856;2023-06-19T15:34:36;30.10;36.80
67529;DHT22;54366;51.980;5.856;2023-06-19T15:37:04;30.10;36.90
67529;DHT22;54366;51.980;5.856;2023-06-19T15:39:36;30.10;36.40
67529;DHT22;54366;51.980;5.856;2023-06-19T15:42:09;30.10;36.60
67529;DHT22;54366;51.980;5.856;2023-06-19T15:44:42;30.10;36.80
67529;DHT22;54366;51.980;5.856;2023-06-19T15:47:15;30.10;36.20
67529;DHT22;54366;51.980;5.856;2023-06-19T15:49:48;30.10;36.70
67529;DHT22;54366;51.980;5.856;2023-06-19T15:52:15;30.10;36.50
67529;DHT22;54366;51.980;5.856;2023-06-19T15:54:47;30.00;36.50
67529;DHT22;54366;51.980;5.856;2023-06-19T15:57:20;30.00;37.00
67529;DHT22;54366;51.980;5.856;2023-06-19T15:59:53;30.00;36.80
67529;DHT22;54366;51.980;5.856;2023-06-19T16:02:19;29.90;36.70